Hallsville, Illinois
Current Conditions -  °F | °C
As of 10:55 AM on Tuesday 27 Jan 2015 (Local Time) from KAAA Reporting Station
Haze Haze  
Wind Chill: 25°   Ceiling: 1200
Heat Index: 33°   Visibility: 4mi
Dew Point: 30°   Wind: 8mph
Humidity: 89%   Direction: 360°N
Pressure: 30.18"   Gusts: NA
Location:  40.143°N, 88.9637°W
Report Text: KAAA 271655Z AUTO 36007KT 4SM BR OVC012 00/M01 A3018 RMK AO2 T00031013
Loading
Personal Weather Stations






























Interactive Weather Map New forecast layout! Learn more

10-Day Weather Forecast

Advertisements
Track Severe Weather on mobile